createdAt,value
2023-03-04T00:03:30.739Z,67.67
2023-03-04T00:07:35.492Z,67.19
2023-03-04T00:11:38.830Z,67.31
2023-03-04T00:15:41.759Z,68.24
2023-03-04T00:19:45.218Z,68.35
2023-03-04T00:23:50.079Z,69.52
2023-03-04T00:27:53.660Z,69.12
2023-03-04T00:31:56.655Z,69.61
2023-03-04T00:36:00.265Z,69.54
2023-03-04T00:40:05.568Z,69.31
2023-03-04T00:44:09.507Z,69.63
2023-03-04T00:48:13.153Z,69.29
2023-03-04T00:52:16.397Z,69.73
2023-03-04T00:56:20.702Z,70.01
2023-03-04T01:00:24.420Z,69.57
2023-03-04T01:04:28.047Z,69.80
2023-03-04T01:08:30.916Z,69.66
2023-03-04T01:12:35.947Z,69.55
2023-03-04T01:16:39.251Z,69.50
2023-03-04T01:20:42.696Z,69.87
2023-03-04T01:24:46.123Z,70.09
2023-03-04T01:28:50.489Z,70.14
2023-03-04T01:32:53.899Z,70.60
2023-03-04T01:36:57.325Z,70.56
2023-03-04T01:41:00.785Z,70.19
2023-03-04T01:45:06.325Z,70.11
2023-03-04T01:49:14.112Z,70.26
2023-03-04T01:53:22.358Z,70.46
2023-03-04T01:57:28.333Z,70.09
2023-03-04T02:01:33.113Z,70.79
2023-03-04T02:05:38.562Z,70.10
2023-03-04T02:10:09.599Z,69.87
2023-03-04T02:14:14.610Z,70.35
2023-03-04T02:18:22.420Z,70.59
2023-03-04T02:22:25.992Z,70.00
2023-03-04T02:26:32.683Z,70.29
2023-03-04T02:30:37.116Z,70.15
2023-03-04T02:34:46.085Z,70.43
2023-03-04T02:38:51.287Z,70.50
2023-03-04T02:42:56.467Z,70.34
2023-03-04T02:47:00.203Z,71.01
2023-03-04T02:51:04.235Z,71.01
2023-03-04T02:55:09.974Z,71.39
2023-03-04T02:59:14.786Z,71.70
2023-03-04T03:03:18.140Z,71.00
2023-03-04T03:07:21.727Z,71.21
2023-03-04T03:11:26.683Z,71.46
2023-03-04T03:15:31.854Z,71.07
2023-03-04T03:24:56.661Z,70.12
2023-03-04T03:29:00.037Z,70.47
2023-03-04T03:33:04.963Z,70.50
2023-03-04T03:37:08.424Z,70.44
2023-03-04T03:41:11.502Z,70.00
2023-03-04T03:45:14.945Z,70.01
2023-03-04T03:49:19.524Z,70.48
2023-03-04T03:53:22.945Z,69.91
2023-03-04T03:57:25.934Z,70.05
2023-03-04T04:01:29.987Z,70.54
2023-03-04T04:05:34.337Z,70.77
2023-03-04T04:09:37.629Z,70.89
2023-03-04T04:13:40.585Z,71.06
2023-03-04T04:17:43.953Z,71.19
2023-03-04T04:21:49.279Z,71.15
2023-03-04T04:25:52.541Z,71.44
2023-03-04T04:29:55.530Z,71.23
2023-03-04T04:33:59.052Z,71.54
2023-03-04T04:38:03.554Z,71.95
2023-03-04T04:42:07.457Z,71.27
2023-03-04T04:46:10.617Z,71.70
2023-03-04T04:50:14.669Z,71.26
2023-03-04T04:54:19.319Z,71.32
2023-03-04T04:58:22.771Z,71.18
2023-03-04T05:02:25.713Z,71.52
2023-03-04T05:06:31.134Z,71.10
2023-03-04T05:10:35.406Z,71.19
2023-03-04T05:14:39.326Z,71.76
2023-03-04T05:18:42.486Z,71.53
2023-03-04T05:22:46.789Z,71.67
2023-03-04T05:26:51.031Z,71.94
2023-03-04T05:30:54.694Z,71.58
2023-03-04T05:34:57.806Z,72.00
2023-03-04T05:39:01.128Z,71.73
2023-03-04T05:43:05.612Z,72.28
2023-03-04T05:47:09.107Z,72.05
2023-03-04T05:51:12.884Z,71.52
2023-03-04T05:55:16.382Z,71.41
2023-03-04T05:59:20.949Z,71.28
2023-03-04T06:03:25.313Z,71.49
2023-03-04T06:07:28.348Z,72.10
2023-03-04T06:11:31.969Z,71.55
2023-03-04T06:15:36.726Z,72.05
2023-03-04T06:19:42.017Z,72.39
2023-03-04T06:23:45.632Z,71.95
2023-03-04T06:27:50.625Z,72.23
2023-03-04T06:31:55.769Z,71.89
2023-03-04T06:35:59.108Z,72.41
2023-03-04T06:40:03.956Z,71.89
2023-03-04T06:44:07.275Z,72.29
2023-03-04T06:48:13.832Z,72.38
2023-03-04T06:52:16.856Z,72.12
2023-03-04T06:56:20.331Z,71.75
2023-03-04T07:00:24.797Z,71.90
2023-03-04T07:04:29.911Z,72.57
2023-03-04T07:08:32.775Z,72.04
2023-03-04T07:12:36.036Z,71.81
2023-03-04T07:16:39.355Z,71.41
2023-03-04T07:20:44.102Z,70.67
2023-03-04T07:24:47.386Z,68.92
2023-03-04T07:28:52.725Z,68.79
2023-03-04T07:32:58.443Z,67.52
2023-03-04T07:37:03.049Z,66.63
2023-03-04T07:41:06.673Z,65.00
2023-03-04T07:45:11.954Z,64.76
2023-03-04T07:49:15.735Z,64.43
2023-03-04T07:53:20.901Z,64.14
2023-03-04T07:57:23.980Z,64.95
2023-03-04T08:01:30.347Z,64.02
2023-03-04T08:05:33.408Z,63.23
2023-03-04T08:09:37.999Z,63.80
2023-03-04T08:13:41.691Z,63.51
2023-03-04T08:17:45.254Z,63.08
2023-03-04T08:21:48.133Z,63.92
2023-03-04T08:25:53.257Z,63.23
2023-03-04T08:29:56.218Z,64.07
2023-03-04T08:33:59.230Z,63.61
2023-03-04T08:38:02.626Z,63.78
2023-03-04T08:42:08.095Z,63.98
2023-03-04T08:46:11.235Z,63.27
2023-03-04T08:50:14.675Z,62.29
2023-03-04T08:54:17.879Z,62.18
2023-03-04T08:58:22.613Z,60.44
2023-03-04T09:02:25.662Z,60.58
2023-03-04T09:06:28.797Z,57.88
2023-03-04T09:10:31.878Z,58.01
2023-03-04T09:14:38.182Z,58.24
2023-03-04T09:18:41.740Z,56.10
2023-03-04T09:22:45.060Z,58.24
2023-03-04T09:26:51.687Z,56.75
2023-03-04T09:30:56.408Z,56.39
2023-03-04T09:34:59.331Z,58.45
2023-03-04T09:39:04.277Z,56.38
2023-03-04T09:43:12.744Z,55.07
2023-03-04T09:47:19.700Z,53.72
2023-03-04T09:51:24.901Z,55.08
2023-03-04T09:55:35.954Z,53.55
2023-03-04T09:59:46.107Z,52.33
2023-03-04T10:14:46.064Z,51.21
2023-03-04T10:18:54.701Z,50.86
2023-03-04T10:23:00.897Z,51.23
2023-03-04T10:27:08.570Z,51.51
2023-03-04T10:31:22.744Z,51.59
2023-03-04T10:35:34.574Z,48.62
2023-03-04T10:39:40.206Z,49.54
2023-03-04T10:43:45.513Z,50.55
2023-03-04T10:47:55.724Z,49.54
2023-03-04T10:52:04.280Z,49.16
2023-03-04T10:56:26.217Z,49.06
2023-03-04T11:00:32.089Z,47.23
2023-03-04T11:04:38.052Z,46.18
2023-03-04T11:08:42.345Z,48.91
2023-03-04T11:12:50.781Z,48.82
2023-03-04T11:16:57.315Z,50.00
2023-03-04T11:21:03.335Z,48.48
2023-03-04T11:25:09.463Z,47.14
2023-03-04T11:29:18.571Z,48.20
2023-03-04T11:33:28.120Z,46.58
2023-03-04T11:37:39.481Z,47.87
2023-03-04T11:41:50.612Z,48.21
2023-03-04T11:46:21.918Z,47.97
2023-03-04T11:50:38.907Z,46.98
2023-03-04T11:55:06.458Z,47.59
2023-03-04T11:59:32.109Z,47.27
2023-03-04T12:03:56.727Z,46.77
2023-03-04T12:08:33.499Z,47.00
2023-03-04T12:12:55.582Z,47.55
2023-03-04T12:17:35.647Z,45.47
2023-03-04T12:22:03.607Z,44.56
2023-03-04T12:26:18.112Z,46.33
2023-03-04T12:30:38.111Z,44.76
2023-03-04T12:34:58.856Z,44.46
2023-03-04T12:39:08.738Z,45.67
2023-03-04T12:43:36.531Z,44.78
2023-03-04T12:47:51.692Z,44.37
2023-03-04T12:52:04.273Z,45.09
2023-03-04T12:56:10.319Z,44.27
2023-03-04T13:00:36.242Z,46.92
2023-03-04T13:04:54.769Z,45.28
2023-03-04T13:09:06.456Z,45.01
2023-03-04T13:13:43.338Z,45.44
2023-03-04T13:17:49.266Z,45.96
2023-03-04T13:21:55.261Z,44.20
2023-03-04T13:26:21.454Z,45.29
2023-03-04T13:31:05.793Z,46.10
2023-03-04T13:35:42.056Z,45.40
2023-03-04T13:39:45.445Z,44.05
2023-03-04T13:43:50.598Z,44.50
2023-03-04T13:47:55.842Z,45.44
2023-03-04T13:51:59.946Z,47.06
2023-03-04T13:56:20.089Z,46.81
2023-03-04T14:00:23.169Z,45.55
2023-03-04T14:04:33.940Z,46.05
2023-03-04T14:08:36.820Z,45.76
2023-03-04T14:12:45.585Z,45.64
2023-03-04T14:16:51.287Z,45.69
2023-03-04T14:20:59.390Z,45.24
2023-03-04T14:25:05.990Z,45.62
2023-03-04T14:29:24.008Z,46.96
2023-03-04T14:33:29.409Z,45.96
2023-03-04T14:37:44.225Z,45.41
2023-03-04T14:41:50.517Z,46.41
2023-03-04T14:45:56.425Z,45.48
2023-03-04T14:49:59.537Z,45.50
2023-03-04T14:54:04.386Z,46.29
2023-03-04T14:58:09.680Z,46.93
2023-03-04T15:02:31.692Z,46.29
2023-03-04T15:06:36.344Z,45.94
2023-03-04T15:10:41.070Z,46.40
2023-03-04T15:19:02.510Z,46.97
2023-03-04T15:23:10.044Z,46.94
2023-03-04T15:27:17.516Z,47.18
2023-03-04T15:31:22.596Z,47.57
2023-03-04T15:35:29.905Z,47.48
2023-03-04T15:39:33.621Z,48.23
2023-03-04T15:43:39.148Z,48.69
2023-03-04T15:47:43.271Z,49.04
2023-03-04T15:51:46.726Z,49.19
2023-03-04T15:55:49.874Z,49.80
2023-03-04T15:59:55.622Z,50.08
2023-03-04T16:03:58.530Z,49.76
2023-03-04T16:08:01.957Z,50.00
2023-03-04T16:12:05.119Z,50.86
2023-03-04T16:16:13.790Z,51.17
2023-03-04T16:20:19.211Z,51.30
2023-03-04T16:24:22.518Z,50.95
2023-03-04T16:28:25.485Z,52.39
2023-03-04T16:32:32.569Z,52.68
2023-03-04T16:36:37.437Z,53.16
2023-03-04T16:40:40.984Z,53.39
2023-03-04T16:44:44.150Z,52.53
2023-03-04T16:48:49.752Z,53.99
2023-03-04T16:52:52.656Z,53.78
2023-03-04T16:56:55.994Z,53.99
2023-03-04T17:00:59.171Z,54.60
2023-03-04T17:05:04.618Z,55.04
2023-03-04T17:09:08.251Z,56.17
2023-03-04T17:13:11.486Z,56.12
2023-03-04T17:17:16.272Z,55.64
2023-03-04T17:21:24.506Z,56.97
2023-03-04T17:25:27.910Z,57.10
2023-03-04T17:29:31.193Z,56.98
2023-03-04T17:33:34.138Z,56.85
2023-03-04T17:37:38.874Z,57.13
2023-03-04T17:41:42.026Z,56.72
2023-03-04T17:45:45.626Z,57.02
2023-03-04T17:49:48.804Z,57.00
2023-03-04T17:53:53.619Z,57.38
2023-03-04T17:57:58.332Z,57.08
2023-03-04T18:02:01.515Z,57.52
2023-03-04T18:06:04.816Z,57.55
2023-03-04T18:10:10.696Z,57.71
2023-03-04T18:14:14.352Z,57.95
2023-03-04T18:18:17.636Z,57.50
2023-03-04T18:22:20.591Z,57.47
2023-03-04T18:26:27.085Z,58.07
2023-03-04T18:30:29.988Z,58.20
2023-03-04T18:34:33.246Z,58.31
2023-03-04T18:38:36.605Z,59.11
2023-03-04T18:42:45.151Z,58.41
2023-03-04T18:46:51.789Z,58.57
2023-03-04T18:50:58.595Z,58.30
2023-03-04T18:55:01.531Z,59.10
2023-03-04T18:59:08.423Z,59.45
2023-03-04T19:03:14.032Z,60.06
2023-03-04T19:07:17.658Z,59.89
2023-03-04T19:11:20.562Z,60.19
2023-03-04T19:15:25.704Z,60.48
2023-03-04T19:19:28.628Z,61.16
2023-03-04T19:23:31.985Z,61.19
2023-03-04T19:27:34.943Z,60.95
2023-03-04T19:31:41.698Z,61.12
2023-03-04T19:35:48.262Z,61.87
2023-03-04T19:39:52.518Z,61.70
2023-03-04T19:43:55.618Z,61.60
2023-03-04T19:48:00.683Z,61.73
2023-03-04T19:52:03.673Z,61.73
2023-03-04T19:56:07.668Z,61.13
2023-03-04T20:00:11.969Z,60.46
2023-03-04T20:04:18.703Z,60.79
2023-03-04T20:08:21.631Z,61.18
2023-03-04T20:12:25.650Z,60.71
2023-03-04T20:16:29.597Z,61.11
2023-03-04T20:20:34.147Z,60.72
2023-03-04T20:24:37.601Z,60.68
2023-03-04T20:28:40.940Z,60.31
2023-03-04T20:32:44.134Z,59.79
2023-03-04T20:36:48.512Z,59.99
2023-03-04T20:40:51.596Z,60.27
2023-03-04T20:44:56.101Z,60.17
2023-03-04T20:49:01.344Z,59.66
2023-03-04T20:53:06.144Z,59.94
2023-03-04T20:57:10.797Z,59.68
2023-03-04T21:01:14.694Z,59.70
2023-03-04T21:05:17.769Z,59.67
2023-03-04T21:09:25.459Z,60.14
2023-03-04T21:13:30.585Z,59.57
2023-03-04T21:17:34.222Z,60.11
2023-03-04T21:21:37.274Z,59.51
2023-03-04T21:25:42.571Z,59.23
2023-03-04T21:29:45.959Z,59.31
2023-03-04T21:33:49.653Z,58.94
2023-03-04T21:37:52.778Z,59.26
2023-03-04T21:41:58.279Z,59.48
2023-03-04T21:46:01.489Z,59.69
2023-03-04T21:50:05.872Z,59.44
2023-03-04T21:54:10.046Z,58.78
2023-03-04T21:58:14.716Z,59.54
2023-03-04T22:02:20.219Z,59.65
2023-03-04T22:06:41.465Z,58.94
2023-03-04T22:10:47.340Z,59.46
2023-03-04T22:14:52.551Z,59.72
2023-03-04T22:18:55.912Z,59.55
2023-03-04T22:22:59.157Z,59.45
2023-03-04T22:27:02.150Z,58.95
2023-03-04T22:31:15.414Z,59.08
2023-03-04T22:35:18.764Z,58.99
2023-03-04T22:39:23.248Z,58.43
2023-03-04T22:43:26.644Z,59.40
2023-03-04T22:47:32.242Z,59.42
2023-03-04T22:51:35.246Z,58.81
2023-03-04T22:55:38.453Z,58.94
2023-03-04T22:59:41.454Z,59.17
2023-03-04T23:03:47.485Z,58.87
2023-03-04T23:07:52.436Z,58.93
2023-03-04T23:11:55.709Z,58.62
2023-03-04T23:15:58.567Z,59.77
2023-03-04T23:20:03.846Z,59.20
2023-03-04T23:24:08.418Z,59.88
2023-03-04T23:28:12.009Z,59.83
2023-03-04T23:32:15.064Z,59.73
2023-03-04T23:36:20.701Z,59.48
2023-03-04T23:40:23.625Z,59.69
2023-03-04T23:44:26.953Z,59.71
2023-03-04T23:48:30.217Z,59.88
2023-03-04T23:52:34.792Z,60.26
2023-03-04T23:56:37.892Z,59.95
